sensor_id;sensor_type;location;lat;lon;timestamp;temperature;humidity
6988;DHT22;3534;49.960;8.018;2022-08-19T00:00:33;23.80;99.90
6988;DHT22;3534;49.960;8.018;2022-08-19T00:03:00;23.80;99.90
6988;DHT22;3534;49.960;8.018;2022-08-19T00:05:27;23.80;99.90
6988;DHT22;3534;49.960;8.018;2022-08-19T00:07:53;23.80;99.90
6988;DHT22;3534;49.960;8.018;2022-08-19T00:10:21;23.80;99.90
6988;DHT22;3534;49.960;8.018;2022-08-19T00:12:50;23.70;99.90
6988;DHT22;3534;49.960;8.018;2022-08-19T00:15:21;23.80;99.90
6988;DHT22;3534;49.960;8.018;2022-08-19T00:17:48;23.70;99.90
6988;DHT22;3534;49.960;8.018;2022-08-19T00:20:18;23.70;99.90
6988;DHT22;3534;49.960;8.018;2022-08-19T00:22:46;23.70;99.90
6988;DHT22;3534;49.960;8.018;2022-08-19T00:25:14;23.70;99.90
6988;DHT22;3534;49.960;8.018;2022-08-19T00:27:42;23.70;99.90
6988;DHT22;3534;49.960;8.018;2022-08-19T00:30:10;23.60;99.90
6988;DHT22;3534;49.960;8.018;2022-08-19T00:32:37;23.60;99.90
6988;DHT22;3534;49.960;8.018;2022-08-19T00:35:05;23.50;99.90
6988;DHT22;3534;49.960;8.018;2022-08-19T00:37:32;23.50;99.90
6988;DHT22;3534;49.960;8.018;2022-08-19T00:40:00;23.50;99.90
6988;DHT22;3534;49.960;8.018;2022-08-19T00:42:28;23.40;99.90
6988;DHT22;3534;49.960;8.018;2022-08-19T00:44:56;23.30;99.90
6988;DHT22;3534;49.960;8.018;2022-08-19T00:47:23;23.30;99.90
6988;DHT22;3534;49.960;8.018;2022-08-19T00:49:53;23.30;99.90
6988;DHT22;3534;49.960;8.018;2022-08-19T00:52:24;23.20;99.90
6988;DHT22;3534;49.960;8.018;2022-08-19T00:54:54;23.20;99.90
6988;DHT22;3534;49.960;8.018;2022-08-19T00:57:25;23.10;99.90
6988;DHT22;3534;49.960;8.018;2022-08-19T00:59:56;23.10;99.90
6988;DHT22;3534;49.960;8.018;2022-08-19T01:02:25;23.10;99.90
6988;DHT22;3534;49.960;8.018;2022-08-19T01:04:52;23.00;99.90
6988;DHT22;3534;49.960;8.018;2022-08-19T01:07:19;23.00;99.90
6988;DHT22;3534;49.960;8.018;2022-08-19T01:09:46;22.90;99.90
6988;DHT22;3534;49.960;8.018;2022-08-19T01:12:13;22.80;99.90
6988;DHT22;3534;49.960;8.018;2022-08-19T01:14:40;22.80;99.90
6988;DHT22;3534;49.960;8.018;2022-08-19T01:17:09;22.70;99.90
6988;DHT22;3534;49.960;8.018;2022-08-19T01:19:39;22.70;99.90
6988;DHT22;3534;49.960;8.018;2022-08-19T01:22:11;22.70;99.90
6988;DHT22;3534;49.960;8.018;2022-08-19T01:24:40;22.70;99.90
6988;DHT22;3534;49.960;8.018;2022-08-19T01:27:07;22.70;99.90
6988;DHT22;3534;49.960;8.018;2022-08-19T01:29:37;22.60;99.90
6988;DHT22;3534;49.960;8.018;2022-08-19T01:32:05;22.60;99.90
6988;DHT22;3534;49.960;8.018;2022-08-19T01:34:32;22.60;99.90
6988;DHT22;3534;49.960;8.018;2022-08-19T01:36:59;22.60;99.90
6988;DHT22;3534;49.960;8.018;2022-08-19T01:39:27;22.70;99.90
6988;DHT22;3534;49.960;8.018;2022-08-19T01:41:55;22.70;99.90
6988;DHT22;3534;49.960;8.018;2022-08-19T01:44:22;22.70;99.90
6988;DHT22;3534;49.960;8.018;2022-08-19T01:46:51;22.70;99.90
6988;DHT22;3534;49.960;8.018;2022-08-19T01:49:20;22.80;99.90
6988;DHT22;3534;49.960;8.018;2022-08-19T01:51:48;22.90;99.90
6988;DHT22;3534;49.960;8.018;2022-08-19T01:54:17;23.00;99.90
6988;DHT22;3534;49.960;8.018;2022-08-19T01:56:44;23.00;99.90
6988;DHT22;3534;49.960;8.018;2022-08-19T01:59:19;23.10;99.90
6988;DHT22;3534;49.960;8.018;2022-08-19T02:01:46;23.10;99.90
6988;DHT22;3534;49.960;8.018;2022-08-19T02:04:13;23.10;99.90
6988;DHT22;3534;49.960;8.018;2022-08-19T02:06:40;23.20;99.90
6988;DHT22;3534;49.960;8.018;2022-08-19T02:09:07;23.20;99.90
6988;DHT22;3534;49.960;8.018;2022-08-19T02:11:36;23.20;99.90
6988;DHT22;3534;49.960;8.018;2022-08-19T02:14:05;23.10;99.90
6988;DHT22;3534;49.960;8.018;2022-08-19T02:16:33;23.10;99.90
6988;DHT22;3534;49.960;8.018;2022-08-19T02:19:00;23.20;99.90
6988;DHT22;3534;49.960;8.018;2022-08-19T02:21:28;23.20;99.90
6988;DHT22;3534;49.960;8.018;2022-08-19T02:23:55;23.20;99.90
6988;DHT22;3534;49.960;8.018;2022-08-19T02:26:22;23.20;99.90
6988;DHT22;3534;49.960;8.018;2022-08-19T02:28:50;23.20;99.90
6988;DHT22;3534;49.960;8.018;2022-08-19T02:31:19;23.30;99.90
6988;DHT22;3534;49.960;8.018;2022-08-19T02:33:48;23.30;99.90
6988;DHT22;3534;49.960;8.018;2022-08-19T02:36:16;23.30;99.90
6988;DHT22;3534;49.960;8.018;2022-08-19T02:38:43;23.30;99.90
6988;DHT22;3534;49.960;8.018;2022-08-19T02:41:14;23.30;99.90
6988;DHT22;3534;49.960;8.018;2022-08-19T02:43:41;23.20;99.90
6988;DHT22;3534;49.960;8.018;2022-08-19T02:46:13;23.20;99.90
6988;DHT22;3534;49.960;8.018;2022-08-19T02:48:39;23.20;99.90
6988;DHT22;3534;49.960;8.018;2022-08-19T02:51:08;23.20;99.90
6988;DHT22;3534;49.960;8.018;2022-08-19T02:53:34;23.20;99.90
6988;DHT22;3534;49.960;8.018;2022-08-19T02:56:06;23.20;99.90
6988;DHT22;3534;49.960;8.018;2022-08-19T02:58:33;23.20;99.90
6988;DHT22;3534;49.960;8.018;2022-08-19T03:01:00;23.10;99.90
6988;DHT22;3534;49.960;8.018;2022-08-19T03:03:27;23.10;99.90
6988;DHT22;3534;49.960;8.018;2022-08-19T03:06:06;23.10;99.90
6988;DHT22;3534;49.960;8.018;2022-08-19T03:08:34;23.10;99.90
6988;DHT22;3534;49.960;8.018;2022-08-19T03:11:01;23.10;99.90
6988;DHT22;3534;49.960;8.018;2022-08-19T03:13:27;23.00;99.90
6988;DHT22;3534;49.960;8.018;2022-08-19T03:15:55;22.80;99.90
6988;DHT22;3534;49.960;8.018;2022-08-19T03:18:22;22.70;99.90
6988;DHT22;3534;49.960;8.018;2022-08-19T03:20:50;22.60;99.90
6988;DHT22;3534;49.960;8.018;2022-08-19T03:23:18;22.50;99.90
6988;DHT22;3534;49.960;8.018;2022-08-19T03:25:48;22.50;99.90
6988;DHT22;3534;49.960;8.018;2022-08-19T03:28:15;22.50;99.90
6988;DHT22;3534;49.960;8.018;2022-08-19T03:30:43;22.50;99.90
6988;DHT22;3534;49.960;8.018;2022-08-19T03:33:22;22.60;99.90
6988;DHT22;3534;49.960;8.018;2022-08-19T03:36:00;22.60;99.90
6988;DHT22;3534;49.960;8.018;2022-08-19T03:38:27;22.70;99.90
6988;DHT22;3534;49.960;8.018;2022-08-19T03:40:56;22.70;99.90
6988;DHT22;3534;49.960;8.018;2022-08-19T03:43:22;22.70;99.90
6988;DHT22;3534;49.960;8.018;2022-08-19T03:45:59;22.60;99.90
6988;DHT22;3534;49.960;8.018;2022-08-19T03:48:26;22.70;99.90
6988;DHT22;3534;49.960;8.018;2022-08-19T03:50:53;22.70;99.90
6988;DHT22;3534;49.960;8.018;2022-08-19T03:53:20;22.70;99.90
6988;DHT22;3534;49.960;8.018;2022-08-19T03:55:47;22.60;99.90
6988;DHT22;3534;49.960;8.018;2022-08-19T03:58:15;22.50;99.90
6988;DHT22;3534;49.960;8.018;2022-08-19T04:00:42;22.50;99.90
6988;DHT22;3534;49.960;8.018;2022-08-19T04:03:09;22.50;99.90
6988;DHT22;3534;49.960;8.018;2022-08-19T04:05:35;22.50;99.90
6988;DHT22;3534;49.960;8.018;2022-08-19T04:08:03;22.40;99.90
6988;DHT22;3534;49.960;8.018;2022-08-19T04:10:31;22.40;99.90
6988;DHT22;3534;49.960;8.018;2022-08-19T04:12:58;22.30;99.90
6988;DHT22;3534;49.960;8.018;2022-08-19T04:15:26;22.30;99.90
6988;DHT22;3534;49.960;8.018;2022-08-19T04:17:54;22.30;99.90
6988;DHT22;3534;49.960;8.018;2022-08-19T04:20:21;22.20;99.90
6988;DHT22;3534;49.960;8.018;2022-08-19T04:22:47;22.20;99.90
6988;DHT22;3534;49.960;8.018;2022-08-19T04:25:14;22.10;99.90
6988;DHT22;3534;49.960;8.018;2022-08-19T04:27:41;22.00;99.90
6988;DHT22;3534;49.960;8.018;2022-08-19T04:30:13;21.90;99.90
6988;DHT22;3534;49.960;8.018;2022-08-19T04:32:41;21.80;99.90
6988;DHT22;3534;49.960;8.018;2022-08-19T04:35:09;21.70;99.90
6988;DHT22;3534;49.960;8.018;2022-08-19T04:37:35;21.80;99.90
6988;DHT22;3534;49.960;8.018;2022-08-19T04:40:05;21.80;99.90
6988;DHT22;3534;49.960;8.018;2022-08-19T04:42:49;21.80;99.90
6988;DHT22;3534;49.960;8.018;2022-08-19T04:45:16;21.90;99.90
6988;DHT22;3534;49.960;8.018;2022-08-19T04:47:44;21.90;99.90
6988;DHT22;3534;49.960;8.018;2022-08-19T04:50:11;21.80;99.90
6988;DHT22;3534;49.960;8.018;2022-08-19T04:52:38;21.80;99.90
6988;DHT22;3534;49.960;8.018;2022-08-19T04:55:08;21.70;99.90
6988;DHT22;3534;49.960;8.018;2022-08-19T04:57:35;21.60;99.90
6988;DHT22;3534;49.960;8.018;2022-08-19T05:00:07;21.60;99.90
6988;DHT22;3534;49.960;8.018;2022-08-19T05:02:34;21.60;99.90
6988;DHT22;3534;49.960;8.018;2022-08-19T05:05:02;21.70;99.90
6988;DHT22;3534;49.960;8.018;2022-08-19T05:07:29;21.60;99.90
6988;DHT22;3534;49.960;8.018;2022-08-19T05:09:56;21.60;99.90
6988;DHT22;3534;49.960;8.018;2022-08-19T05:12:23;21.50;99.90
6988;DHT22;3534;49.960;8.018;2022-08-19T05:14:50;21.50;99.90
6988;DHT22;3534;49.960;8.018;2022-08-19T05:17:17;21.60;99.90
6988;DHT22;3534;49.960;8.018;2022-08-19T05:19:44;21.70;99.90
6988;DHT22;3534;49.960;8.018;2022-08-19T05:22:29;21.70;99.90
6988;DHT22;3534;49.960;8.018;2022-08-19T05:25:05;21.80;99.90
6988;DHT22;3534;49.960;8.018;2022-08-19T05:27:32;21.90;99.90
6988;DHT22;3534;49.960;8.018;2022-08-19T05:29:59;21.90;99.90
6988;DHT22;3534;49.960;8.018;2022-08-19T05:32:26;21.90;99.90
6988;DHT22;3534;49.960;8.018;2022-08-19T05:34:52;21.90;99.90
6988;DHT22;3534;49.960;8.018;2022-08-19T05:37:19;21.80;99.90
6988;DHT22;3534;49.960;8.018;2022-08-19T05:39:48;21.70;99.90
6988;DHT22;3534;49.960;8.018;2022-08-19T05:42:15;21.70;99.90
6988;DHT22;3534;49.960;8.018;2022-08-19T05:44:43;21.60;99.90
6988;DHT22;3534;49.960;8.018;2022-08-19T05:47:12;21.50;99.90
6988;DHT22;3534;49.960;8.018;2022-08-19T05:49:41;21.50;99.90
6988;DHT22;3534;49.960;8.018;2022-08-19T05:52:10;21.50;99.90
6988;DHT22;3534;49.960;8.018;2022-08-19T05:54:38;21.50;99.90
6988;DHT22;3534;49.960;8.018;2022-08-19T05:57:07;21.50;99.90
6988;DHT22;3534;49.960;8.018;2022-08-19T05:59:34;21.50;99.90
6988;DHT22;3534;49.960;8.018;2022-08-19T06:02:03;21.40;99.90
6988;DHT22;3534;49.960;8.018;2022-08-19T06:04:30;21.50;99.90
6988;DHT22;3534;49.960;8.018;2022-08-19T06:06:57;21.60;99.90
6988;DHT22;3534;49.960;8.018;2022-08-19T06:09:24;21.60;99.90
6988;DHT22;3534;49.960;8.018;2022-08-19T06:11:52;21.50;99.90
6988;DHT22;3534;49.960;8.018;2022-08-19T06:14:23;21.50;99.90
6988;DHT22;3534;49.960;8.018;2022-08-19T06:16:50;21.60;99.90
6988;DHT22;3534;49.960;8.018;2022-08-19T06:19:19;21.60;99.90
6988;DHT22;3534;49.960;8.018;2022-08-19T06:21:48;21.60;99.90
6988;DHT22;3534;49.960;8.018;2022-08-19T06:24:19;21.60;99.90
6988;DHT22;3534;49.960;8.018;2022-08-19T06:26:50;21.60;99.90
6988;DHT22;3534;49.960;8.018;2022-08-19T06:29:19;21.70;99.90
6988;DHT22;3534;49.960;8.018;2022-08-19T06:31:50;21.70;99.90
6988;DHT22;3534;49.960;8.018;2022-08-19T06:34:18;21.80;99.90
6988;DHT22;3534;49.960;8.018;2022-08-19T06:36:48;21.80;99.90
6988;DHT22;3534;49.960;8.018;2022-08-19T06:39:19;21.90;99.90
6988;DHT22;3534;49.960;8.018;2022-08-19T06:41:49;21.90;99.90
6988;DHT22;3534;49.960;8.018;2022-08-19T06:44:17;21.90;99.90
6988;DHT22;3534;49.960;8.018;2022-08-19T06:46:44;22.00;99.90
6988;DHT22;3534;49.960;8.018;2022-08-19T06:49:12;22.10;99.90
6988;DHT22;3534;49.960;8.018;2022-08-19T06:51:41;22.10;99.90
6988;DHT22;3534;49.960;8.018;2022-08-19T06:54:09;22.30;99.90
6988;DHT22;3534;49.960;8.018;2022-08-19T06:56:36;22.40;99.90
6988;DHT22;3534;49.960;8.018;2022-08-19T06:59:05;22.50;99.90
6988;DHT22;3534;49.960;8.018;2022-08-19T07:01:35;22.60;99.90
6988;DHT22;3534;49.960;8.018;2022-08-19T07:04:03;22.70;99.90
6988;DHT22;3534;49.960;8.018;2022-08-19T07:06:32;22.70;99.90
6988;DHT22;3534;49.960;8.018;2022-08-19T07:08:58;22.70;99.90
6988;DHT22;3534;49.960;8.018;2022-08-19T07:11:25;22.70;99.90
6988;DHT22;3534;49.960;8.018;2022-08-19T07:13:52;22.60;99.90
6988;DHT22;3534;49.960;8.018;2022-08-19T07:16:20;22.60;99.90
6988;DHT22;3534;49.960;8.018;2022-08-19T07:18:47;22.60;99.90
6988;DHT22;3534;49.960;8.018;2022-08-19T07:21:16;22.70;99.90
6988;DHT22;3534;49.960;8.018;2022-08-19T07:23:45;22.70;99.90
6988;DHT22;3534;49.960;8.018;2022-08-19T07:26:15;22.80;99.90
6988;DHT22;3534;49.960;8.018;2022-08-19T07:28:42;22.80;99.90
6988;DHT22;3534;49.960;8.018;2022-08-19T07:31:11;22.80;99.90
6988;DHT22;3534;49.960;8.018;2022-08-19T07:33:38;22.90;99.90
6988;DHT22;3534;49.960;8.018;2022-08-19T07:36:07;23.00;99.90
6988;DHT22;3534;49.960;8.018;2022-08-19T07:38:37;23.10;99.90
6988;DHT22;3534;49.960;8.018;2022-08-19T07:41:06;23.20;99.90
6988;DHT22;3534;49.960;8.018;2022-08-19T07:43:33;23.20;99.90
6988;DHT22;3534;49.960;8.018;2022-08-19T07:45:59;23.20;99.90
6988;DHT22;3534;49.960;8.018;2022-08-19T07:48:27;23.30;99.90
6988;DHT22;3534;49.960;8.018;2022-08-19T07:50:56;23.30;99.90
6988;DHT22;3534;49.960;8.018;2022-08-19T07:53:25;23.30;99.90
6988;DHT22;3534;49.960;8.018;2022-08-19T07:55:51;23.30;99.90
6988;DHT22;3534;49.960;8.018;2022-08-19T07:58:21;23.30;99.90
6988;DHT22;3534;49.960;8.018;2022-08-19T08:00:49;23.30;99.90
6988;DHT22;3534;49.960;8.018;2022-08-19T08:03:19;23.30;99.90
6988;DHT22;3534;49.960;8.018;2022-08-19T08:05:46;23.30;99.90
6988;DHT22;3534;49.960;8.018;2022-08-19T08:08:31;23.30;99.90
6988;DHT22;3534;49.960;8.018;2022-08-19T08:11:17;23.30;99.90
6988;DHT22;3534;49.960;8.018;2022-08-19T08:13:46;23.40;99.90
6988;DHT22;3534;49.960;8.018;2022-08-19T08:16:13;23.50;99.90
6988;DHT22;3534;49.960;8.018;2022-08-19T08:18:40;23.50;99.90
6988;DHT22;3534;49.960;8.018;2022-08-19T08:21:08;23.50;99.90
6988;DHT22;3534;49.960;8.018;2022-08-19T08:23:35;23.50;99.90
6988;DHT22;3534;49.960;8.018;2022-08-19T08:26:02;23.50;99.90
6988;DHT22;3534;49.960;8.018;2022-08-19T08:28:30;23.70;99.90
6988;DHT22;3534;49.960;8.018;2022-08-19T08:30:58;23.70;99.90
6988;DHT22;3534;49.960;8.018;2022-08-19T08:33:27;23.80;99.90
6988;DHT22;3534;49.960;8.018;2022-08-19T08:35:55;23.80;99.90
6988;DHT22;3534;49.960;8.018;2022-08-19T08:38:22;23.90;99.90
6988;DHT22;3534;49.960;8.018;2022-08-19T08:40:52;24.00;99.90
6988;DHT22;3534;49.960;8.018;2022-08-19T08:43:24;24.10;99.90
6988;DHT22;3534;49.960;8.018;2022-08-19T08:45:59;24.20;99.90
6988;DHT22;3534;49.960;8.018;2022-08-19T08:48:34;24.20;99.90
6988;DHT22;3534;49.960;8.018;2022-08-19T08:51:04;24.20;99.90
6988;DHT22;3534;49.960;8.018;2022-08-19T08:53:32;24.20;99.90
6988;DHT22;3534;49.960;8.018;2022-08-19T08:56:03;24.20;99.90
6988;DHT22;3534;49.960;8.018;2022-08-19T08:58:36;24.20;99.90
6988;DHT22;3534;49.960;8.018;2022-08-19T09:01:09;24.20;99.90
6988;DHT22;3534;49.960;8.018;2022-08-19T09:03:39;24.20;99.90
6988;DHT22;3534;49.960;8.018;2022-08-19T09:06:12;24.30;99.90
6988;DHT22;3534;49.960;8.018;2022-08-19T09:08:47;24.30;99.90
6988;DHT22;3534;49.960;8.018;2022-08-19T09:11:19;24.30;99.90
6988;DHT22;3534;49.960;8.018;2022-08-19T09:14:06;24.40;99.90
6988;DHT22;3534;49.960;8.018;2022-08-19T09:16:37;24.40;99.90
6988;DHT22;3534;49.960;8.018;2022-08-19T09:19:06;24.50;99.90
6988;DHT22;3534;49.960;8.018;2022-08-19T09:21:34;24.50;99.90
6988;DHT22;3534;49.960;8.018;2022-08-19T09:24:01;24.50;99.90
6988;DHT22;3534;49.960;8.018;2022-08-19T09:26:29;24.60;99.90
6988;DHT22;3534;49.960;8.018;2022-08-19T09:28:57;24.60;99.90
6988;DHT22;3534;49.960;8.018;2022-08-19T09:31:27;24.70;99.90
6988;DHT22;3534;49.960;8.018;2022-08-19T09:33:55;24.80;99.90
6988;DHT22;3534;49.960;8.018;2022-08-19T09:36:25;24.90;99.90
6988;DHT22;3534;49.960;8.018;2022-08-19T09:38:52;25.00;99.90
6988;DHT22;3534;49.960;8.018;2022-08-19T09:41:21;25.00;99.90
6988;DHT22;3534;49.960;8.018;2022-08-19T09:43:50;25.00;99.90
6988;DHT22;3534;49.960;8.018;2022-08-19T09:46:19;25.10;99.90
6988;DHT22;3534;49.960;8.018;2022-08-19T09:48:47;25.10;99.90
6988;DHT22;3534;49.960;8.018;2022-08-19T09:51:22;25.20;99.90
6988;DHT22;3534;49.960;8.018;2022-08-19T09:53:51;25.30;99.90
6988;DHT22;3534;49.960;8.018;2022-08-19T09:56:20;25.30;99.90
6988;DHT22;3534;49.960;8.018;2022-08-19T09:58:48;25.40;99.90
6988;DHT22;3534;49.960;8.018;2022-08-19T10:01:19;25.50;99.90
6988;DHT22;3534;49.960;8.018;2022-08-19T10:03:48;25.50;99.90
6988;DHT22;3534;49.960;8.018;2022-08-19T10:06:17;25.60;99.90
6988;DHT22;3534;49.960;8.018;2022-08-19T10:08:45;25.60;99.90
6988;DHT22;3534;49.960;8.018;2022-08-19T10:11:12;25.70;99.90
6988;DHT22;3534;49.960;8.018;2022-08-19T10:13:43;25.70;99.90
6988;DHT22;3534;49.960;8.018;2022-08-19T10:16:12;25.80;99.90
6988;DHT22;3534;49.960;8.018;2022-08-19T10:18:40;25.80;99.90
6988;DHT22;3534;49.960;8.018;2022-08-19T10:21:10;25.80;99.90
6988;DHT22;3534;49.960;8.018;2022-08-19T10:23:39;25.90;99.90
6988;DHT22;3534;49.960;8.018;2022-08-19T10:26:11;25.90;99.90
6988;DHT22;3534;49.960;8.018;2022-08-19T10:28:38;26.00;99.90
6988;DHT22;3534;49.960;8.018;2022-08-19T10:31:06;26.00;99.90
6988;DHT22;3534;49.960;8.018;2022-08-19T10:33:33;26.00;99.90
6988;DHT22;3534;49.960;8.018;2022-08-19T10:36:02;26.10;99.90
6988;DHT22;3534;49.960;8.018;2022-08-19T10:38:30;26.10;99.90
6988;DHT22;3534;49.960;8.018;2022-08-19T10:41:05;26.10;99.90
6988;DHT22;3534;49.960;8.018;2022-08-19T10:43:32;26.10;99.90
6988;DHT22;3534;49.960;8.018;2022-08-19T10:46:01;26.20;99.90
6988;DHT22;3534;49.960;8.018;2022-08-19T10:48:29;26.20;99.90
6988;DHT22;3534;49.960;8.018;2022-08-19T10:50:57;26.30;99.90
6988;DHT22;3534;49.960;8.018;2022-08-19T10:53:41;26.30;99.90
6988;DHT22;3534;49.960;8.018;2022-08-19T10:56:09;26.40;99.90
6988;DHT22;3534;49.960;8.018;2022-08-19T10:58:54;26.50;99.90
6988;DHT22;3534;49.960;8.018;2022-08-19T11:01:22;26.60;99.90
6988;DHT22;3534;49.960;8.018;2022-08-19T11:03:49;26.70;99.90
6988;DHT22;3534;49.960;8.018;2022-08-19T11:06:16;26.80;99.90
6988;DHT22;3534;49.960;8.018;2022-08-19T11:08:43;26.80;99.90
6988;DHT22;3534;49.960;8.018;2022-08-19T11:11:11;26.80;99.90
6988;DHT22;3534;49.960;8.018;2022-08-19T11:13:40;26.80;99.90
6988;DHT22;3534;49.960;8.018;2022-08-19T11:18:38;26.90;99.90
6988;DHT22;3534;49.960;8.018;2022-08-19T11:21:07;26.90;99.90
6988;DHT22;3534;49.960;8.018;2022-08-19T11:23:34;27.00;99.90
6988;DHT22;3534;49.960;8.018;2022-08-19T11:26:00;27.00;99.90
6988;DHT22;3534;49.960;8.018;2022-08-19T11:28:29;27.00;99.90
6988;DHT22;3534;49.960;8.018;2022-08-19T11:30:56;27.10;99.90
6988;DHT22;3534;49.960;8.018;2022-08-19T11:33:22;27.10;99.90
6988;DHT22;3534;49.960;8.018;2022-08-19T11:35:51;27.20;99.90
6988;DHT22;3534;49.960;8.018;2022-08-19T11:38:18;27.20;99.90
6988;DHT22;3534;49.960;8.018;2022-08-19T11:40:45;27.30;99.90
6988;DHT22;3534;49.960;8.018;2022-08-19T11:43:11;27.40;99.90
6988;DHT22;3534;49.960;8.018;2022-08-19T11:45:39;27.40;99.90
6988;DHT22;3534;49.960;8.018;2022-08-19T11:48:06;27.40;99.90
6988;DHT22;3534;49.960;8.018;2022-08-19T11:50:33;27.40;99.90
6988;DHT22;3534;49.960;8.018;2022-08-19T11:53:00;27.50;99.90
6988;DHT22;3534;49.960;8.018;2022-08-19T11:55:27;27.50;99.90
6988;DHT22;3534;49.960;8.018;2022-08-19T11:57:53;27.60;99.90
6988;DHT22;3534;49.960;8.018;2022-08-19T12:00:20;27.60;99.90
6988;DHT22;3534;49.960;8.018;2022-08-19T12:02:48;27.70;99.90
6988;DHT22;3534;49.960;8.018;2022-08-19T12:05:15;27.80;99.90
6988;DHT22;3534;49.960;8.018;2022-08-19T12:07:41;27.90;99.30
6988;DHT22;3534;49.960;8.018;2022-08-19T12:10:09;28.00;99.20
6988;DHT22;3534;49.960;8.018;2022-08-19T12:12:36;28.10;99.80
6988;DHT22;3534;49.960;8.018;2022-08-19T12:15:08;28.20;97.50
6988;DHT22;3534;49.960;8.018;2022-08-19T12:17:36;28.30;96.90
6988;DHT22;3534;49.960;8.018;2022-08-19T12:20:06;28.50;95.70
6988;DHT22;3534;49.960;8.018;2022-08-19T12:22:34;28.60;97.20
6988;DHT22;3534;49.960;8.018;2022-08-19T12:25:01;28.70;94.30
6988;DHT22;3534;49.960;8.018;2022-08-19T12:27:28;28.90;93.40
6988;DHT22;3534;49.960;8.018;2022-08-19T12:29:54;29.00;92.60
6988;DHT22;3534;49.960;8.018;2022-08-19T12:32:21;29.10;92.00
6988;DHT22;3534;49.960;8.018;2022-08-19T12:34:50;29.20;91.80
6988;DHT22;3534;49.960;8.018;2022-08-19T12:37:18;29.30;92.60
6988;DHT22;3534;49.960;8.018;2022-08-19T12:39:44;29.50;92.40
6988;DHT22;3534;49.960;8.018;2022-08-19T12:42:12;29.70;92.00
6988;DHT22;3534;49.960;8.018;2022-08-19T12:44:41;29.90;92.50
6988;DHT22;3534;49.960;8.018;2022-08-19T12:47:10;30.20;90.20
6988;DHT22;3534;49.960;8.018;2022-08-19T12:49:38;30.40;91.40
6988;DHT22;3534;49.960;8.018;2022-08-19T12:52:06;30.80;92.50
6988;DHT22;3534;49.960;8.018;2022-08-19T12:54:35;31.00;92.20
6988;DHT22;3534;49.960;8.018;2022-08-19T12:57:05;31.10;87.80
6988;DHT22;3534;49.960;8.018;2022-08-19T12:59:32;30.90;88.90
6988;DHT22;3534;49.960;8.018;2022-08-19T13:02:00;31.00;91.10
6988;DHT22;3534;49.960;8.018;2022-08-19T13:04:26;31.20;90.50
6988;DHT22;3534;49.960;8.018;2022-08-19T13:06:53;31.50;90.00
6988;DHT22;3534;49.960;8.018;2022-08-19T13:09:20;31.60;90.80
6988;DHT22;3534;49.960;8.018;2022-08-19T13:11:48;31.70;88.60
6988;DHT22;3534;49.960;8.018;2022-08-19T13:14:14;31.90;90.20
6988;DHT22;3534;49.960;8.018;2022-08-19T13:16:41;32.20;87.40
6988;DHT22;3534;49.960;8.018;2022-08-19T13:19:08;32.50;88.50
6988;DHT22;3534;49.960;8.018;2022-08-19T13:21:36;32.80;85.70
6988;DHT22;3534;49.960;8.018;2022-08-19T13:24:03;33.20;85.50
6988;DHT22;3534;49.960;8.018;2022-08-19T13:26:30;33.40;86.80
6988;DHT22;3534;49.960;8.018;2022-08-19T13:28:58;33.60;84.50
6988;DHT22;3534;49.960;8.018;2022-08-19T13:31:42;33.80;82.10
6988;DHT22;3534;49.960;8.018;2022-08-19T13:34:29;34.00;83.60
6988;DHT22;3534;49.960;8.018;2022-08-19T13:36:58;34.10;80.80
6988;DHT22;3534;49.960;8.018;2022-08-19T13:39:25;34.20;79.70
6988;DHT22;3534;49.960;8.018;2022-08-19T13:41:52;34.10;79.60
6988;DHT22;3534;49.960;8.018;2022-08-19T13:44:21;34.30;79.10
6988;DHT22;3534;49.960;8.018;2022-08-19T13:46:48;34.50;79.80
6988;DHT22;3534;49.960;8.018;2022-08-19T13:49:17;34.70;77.20
6988;DHT22;3534;49.960;8.018;2022-08-19T13:51:44;34.70;77.10
6988;DHT22;3534;49.960;8.018;2022-08-19T13:54:12;34.60;76.40
6988;DHT22;3534;49.960;8.018;2022-08-19T13:56:41;34.20;80.80
6988;DHT22;3534;49.960;8.018;2022-08-19T13:59:08;34.00;78.00
6988;DHT22;3534;49.960;8.018;2022-08-19T14:01:36;34.30;78.80
6988;DHT22;3534;49.960;8.018;2022-08-19T14:04:03;34.80;79.70
6988;DHT22;3534;49.960;8.018;2022-08-19T14:06:31;35.20;74.30
6988;DHT22;3534;49.960;8.018;2022-08-19T14:08:57;35.50;76.00
6988;DHT22;3534;49.960;8.018;2022-08-19T14:11:25;35.90;76.20
6988;DHT22;3534;49.960;8.018;2022-08-19T14:13:52;36.20;72.80
6988;DHT22;3534;49.960;8.018;2022-08-19T14:16:19;36.00;74.60
6988;DHT22;3534;49.960;8.018;2022-08-19T14:18:48;35.70;72.20
6988;DHT22;3534;49.960;8.018;2022-08-19T14:21:15;35.50;72.10
6988;DHT22;3534;49.960;8.018;2022-08-19T14:23:43;35.10;72.70
6988;DHT22;3534;49.960;8.018;2022-08-19T14:26:12;34.50;72.50
6988;DHT22;3534;49.960;8.018;2022-08-19T14:28:40;34.10;74.80
6988;DHT22;3534;49.960;8.018;2022-08-19T14:31:07;33.90;73.90
6988;DHT22;3534;49.960;8.018;2022-08-19T14:33:34;33.90;74.30
6988;DHT22;3534;49.960;8.018;2022-08-19T14:36:02;33.90;74.20
6988;DHT22;3534;49.960;8.018;2022-08-19T14:38:29;34.10;73.00
6988;DHT22;3534;49.960;8.018;2022-08-19T14:41:06;34.40;75.80
6988;DHT22;3534;49.960;8.018;2022-08-19T14:43:35;34.60;72.60
6988;DHT22;3534;49.960;8.018;2022-08-19T14:46:04;34.70;72.90
6988;DHT22;3534;49.960;8.018;2022-08-19T14:48:30;34.80;75.90
6988;DHT22;3534;49.960;8.018;2022-08-19T14:50:57;35.00;73.10
6988;DHT22;3534;49.960;8.018;2022-08-19T14:53:25;34.90;71.70
6988;DHT22;3534;49.960;8.018;2022-08-19T14:55:52;34.70;72.00
6988;DHT22;3534;49.960;8.018;2022-08-19T14:58:18;34.30;71.80
6988;DHT22;3534;49.960;8.018;2022-08-19T15:00:45;34.20;76.80
6988;DHT22;3534;49.960;8.018;2022-08-19T15:03:12;34.10;74.40
6988;DHT22;3534;49.960;8.018;2022-08-19T15:05:39;34.10;75.20
6988;DHT22;3534;49.960;8.018;2022-08-19T15:08:06;34.00;74.50
6988;DHT22;3534;49.960;8.018;2022-08-19T15:10:34;34.20;73.50
6988;DHT22;3534;49.960;8.018;2022-08-19T15:13:01;34.50;72.80
6988;DHT22;3534;49.960;8.018;2022-08-19T15:15:27;34.70;72.70
6988;DHT22;3534;49.960;8.018;2022-08-19T15:17:54;35.00;73.90
6988;DHT22;3534;49.960;8.018;2022-08-19T15:20:27;35.20;72.50
6988;DHT22;3534;49.960;8.018;2022-08-19T15:22:54;35.30;72.40
6988;DHT22;3534;49.960;8.018;2022-08-19T15:25:21;35.60;74.10
6988;DHT22;3534;49.960;8.018;2022-08-19T15:27:49;35.60;71.10
6988;DHT22;3534;49.960;8.018;2022-08-19T15:30:20;35.40;70.00
6988;DHT22;3534;49.960;8.018;2022-08-19T15:32:47;35.20;70.40
6988;DHT22;3534;49.960;8.018;2022-08-19T15:35:14;35.00;72.00
6988;DHT22;3534;49.960;8.018;2022-08-19T15:37:43;35.00;70.60
6988;DHT22;3534;49.960;8.018;2022-08-19T15:40:11;34.80;70.80
6988;DHT22;3534;49.960;8.018;2022-08-19T15:42:38;34.80;72.60
6988;DHT22;3534;49.960;8.018;2022-08-19T15:45:09;35.00;74.30
6988;DHT22;3534;49.960;8.018;2022-08-19T15:47:36;35.20;71.20
6988;DHT22;3534;49.960;8.018;2022-08-19T15:50:06;35.10;70.10
6988;DHT22;3534;49.960;8.018;2022-08-19T15:52:33;34.70;70.00
6988;DHT22;3534;49.960;8.018;2022-08-19T15:55:00;34.40;70.50
6988;DHT22;3534;49.960;8.018;2022-08-19T15:57:27;34.40;70.80
6988;DHT22;3534;49.960;8.018;2022-08-19T16:00:18;34.40;72.10
6988;DHT22;3534;49.960;8.018;2022-08-19T16:03:03;34.40;74.80
6988;DHT22;3534;49.960;8.018;2022-08-19T16:05:59;34.70;75.20
6988;DHT22;3534;49.960;8.018;2022-08-19T16:08:43;35.00;72.40
6988;DHT22;3534;49.960;8.018;2022-08-19T16:11:10;35.00;69.60
6988;DHT22;3534;49.960;8.018;2022-08-19T16:13:37;35.10;69.30